Time;durP1;ratioP1;P1;durP2;ratioP2;P2;SDS_P1;SDS_P2;PMS_P1;PMS_P2;Temp;Humidity;BMP_temperature;BMP_pressure;BME280_temperature;BME280_humidity;BME280_pressure;Samples;Min_cycle;Max_cycle;Signal;HPM_P1;HPM_P2
2021/08/29 02:45:26;;;;;;;3.85;2.90;;;16.60;91.10;;;;;;5820449;24;20924;31
2021/08/29 02:47:59;;;;;;;4.90;3.07;;;16.60;91.30;;;;;;4765418;30;20099;-84
2021/08/29 02:50:36;;;;;;;5.55;3.53;;;16.50;91.20;;;;;;4750165;30;20279;-83
2021/08/29 02:53:03;;;;;;;3.33;2.72;;;16.50;91.30;;;;;;4760471;30;20036;-83
2021/08/29 02:55:30;;;;;;;4.78;2.90;;;16.60;91.20;;;;;;4760716;30;20041;-83
2021/08/29 02:58:05;;;;;;;3.83;2.47;;;16.60;91.20;;;;;;4760677;30;20025;-84
2021/08/29 03:00:51;;;;;;;3.20;2.90;;;16.60;91.20;;;;;;4758285;30;20036;-84
2021/08/29 03:03:37;;;;;;;6.17;2.93;;;16.50;91.30;;;;;;4758513;30;20039;-83
2021/08/29 03:06:04;;;;;;;4.20;2.78;;;16.50;91.40;;;;;;4760467;30;20331;-83
2021/08/29 03:08:30;;;;;;;2.45;2.17;;;16.50;91.40;;;;;;4760767;30;20028;-83
2021/08/29 03:10:56;;;;;;;2.63;2.33;;;16.50;91.40;;;;;;4760396;30;20331;-83
2021/08/29 03:13:24;;;;;;;3.50;2.42;;;16.50;91.40;;;;;;4760322;30;20033;-84
2021/08/29 03:16:00;;;;;;;3.08;2.55;;;16.40;91.40;;;;;;4760269;30;20090;-83
2021/08/29 03:18:48;;;;;;;3.83;2.88;;;16.40;91.50;;;;;;4758161;30;20094;-83
2021/08/29 03:21:35;;;;;;;4.25;3.17;;;16.30;91.70;;;;;;4760655;30;20028;-84
2021/08/29 03:24:01;;;;;;;4.43;2.50;;;16.40;91.70;;;;;;4760372;30;20036;-84
2021/08/29 03:26:27;;;;;;;3.88;2.90;;;16.40;91.70;;;;;;4759922;30;20279;-83
2021/08/29 03:28:58;;;;;;;6.45;3.15;;;16.40;91.60;;;;;;4760499;30;20117;-83
2021/08/29 03:31:24;;;;;;;3.45;2.90;;;16.30;91.70;;;;;;4760133;30;20036;-83
2021/08/29 03:33:53;;;;;;;3.55;2.47;;;16.30;91.90;;;;;;4760509;30;20032;-84
2021/08/29 03:36:23;;;;;;;2.45;2.25;;;16.30;91.90;;;;;;4760281;30;20044;-83
2021/08/29 03:38:50;;;;;;;3.80;2.30;;;16.30;92.00;;;;;;4760590;30;20033;-84
2021/08/29 03:41:18;;;;;;;6.30;2.63;;;16.20;91.90;;;;;;4760042;30;20036;-84
2021/08/29 03:43:46;;;;;;;3.63;2.60;;;16.30;91.90;;;;;;4760714;30;20032;-84
2021/08/29 03:46:15;;;;;;;8.73;2.60;;;16.30;92.00;;;;;;4765956;30;20147;-84
2021/08/29 03:48:42;;;;;;;6.40;2.47;;;16.30;92.00;;;;;;4763004;30;20028;-84
2021/08/29 03:51:09;;;;;;;2.88;2.60;;;16.30;92.10;;;;;;4777915;30;20028;-84
2021/08/29 03:53:37;;;;;;;3.33;2.75;;;16.20;92.10;;;;;;4777880;30;20036;-83
2021/08/29 03:56:05;;;;;;;2.85;2.38;;;16.30;92.00;;;;;;4778027;30;20051;-83
2021/08/29 03:58:35;;;;;;;3.83;2.20;;;16.40;91.90;;;;;;4777520;30;20048;-83
2021/08/29 04:01:01;;;;;;;3.70;2.45;;;16.30;92.00;;;;;;4777563;30;20081;-84
2021/08/29 04:03:28;;;;;;;3.53;2.92;;;16.30;91.90;;;;;;4777642;30;20093;-83
2021/08/29 04:06:08;;;;;;;2.85;2.58;;;16.40;91.90;;;;;;4776038;30;20036;-84
2021/08/29 04:08:37;;;;;;;3.38;2.60;;;16.40;91.80;;;;;;4777175;30;20265;-84
2021/08/29 04:11:04;;;;;;;3.10;2.80;;;16.30;91.90;;;;;;4777535;30;20327;-84
2021/08/29 04:13:36;;;;;;;3.42;2.58;;;16.30;91.90;;;;;;4777025;30;20040;-83
2021/08/29 04:16:13;;;;;;;3.15;2.47;;;16.30;91.80;;;;;;4776292;30;20036;-84
2021/08/29 04:18:44;;;;;;;4.82;2.70;;;16.30;91.80;;;;;;4778052;30;20036;-83
2021/08/29 04:21:13;;;;;;;3.20;2.22;;;16.20;91.90;;;;;;4778401;30;20055;-83
2021/08/29 04:23:39;;;;;;;4.57;2.65;;;16.20;91.80;;;;;;4778048;30;20052;-83
2021/08/29 04:26:06;;;;;;;3.05;2.50;;;16.20;91.70;;;;;;4779880;30;20036;-83
2021/08/29 04:28:33;;;;;;;4.13;2.70;;;16.20;91.80;;;;;;4781544;30;20100;-83
2021/08/29 04:31:02;;;;;;;2.88;2.22;;;16.20;91.80;;;;;;4781291;30;20060;-83
2021/08/29 04:33:32;;;;;;;3.42;2.08;;;16.20;91.70;;;;;;4781309;30;20101;-83
2021/08/29 04:36:17;;;;;;;3.60;2.15;;;16.20;91.70;;;;;;4779848;30;20066;-83
2021/08/29 04:38:44;;;;;;;2.42;2.22;;;16.20;91.70;;;;;;4781345;30;20047;-83
2021/08/29 04:41:10;;;;;;;2.75;1.85;;;16.20;91.80;;;;;;4781784;30;20406;-83
2021/08/29 04:43:36;;;;;;;2.38;2.10;;;16.20;91.90;;;;;;4781736;30;20028;-83
2021/08/29 04:46:04;;;;;;;3.17;2.47;;;16.20;91.90;;;;;;4781555;30;20048;-83
2021/08/29 04:48:31;;;;;;;3.13;2.50;;;16.20;91.80;;;;;;4781562;30;20047;-83
2021/08/29 04:50:58;;;;;;;3.15;2.08;;;16.30;91.70;;;;;;4781008;30;20039;-83
2021/08/29 04:53:26;;;;;;;2.75;2.45;;;16.40;91.80;;;;;;4780944;30;20036;-83
2021/08/29 04:55:51;;;;;;;2.70;2.47;;;16.40;91.40;;;;;;4781398;30;20031;-84
2021/08/29 04:58:20;;;;;;;4.03;2.72;;;16.40;91.40;;;;;;4781207;30;20028;-84
2021/08/29 05:00:46;;;;;;;3.53;2.90;;;16.40;91.60;;;;;;4781584;30;20031;-85
2021/08/29 05:03:12;;;;;;;3.67;2.57;;;16.50;91.40;;;;;;4780933;29;20035;-84
2021/08/29 05:05:39;;;;;;;3.72;2.67;;;16.50;91.30;;;;;;4781368;30;20062;-84
2021/08/29 05:08:05;;;;;;;2.60;2.40;;;16.70;91.10;;;;;;4781720;30;20079;-84
2021/08/29 05:10:32;;;;;;;5.03;2.90;;;16.70;91.00;;;;;;4781543;30;20051;-84
2021/08/29 05:13:10;;;;;;;2.83;2.47;;;16.80;90.60;;;;;;4780122;30;20032;-84
2021/08/29 05:15:36;;;;;;;4.22;2.67;;;16.70;90.70;;;;;;4781088;30;20028;-84
2021/08/29 05:18:02;;;;;;;2.60;2.40;;;16.80;90.80;;;;;;4787109;30;20053;-84
2021/08/29 05:20:32;;;;;;;3.88;2.60;;;16.80;90.60;;;;;;4802425;29;20037;-84
2021/08/29 05:23:16;;;;;;;2.72;2.28;;;16.80;90.60;;;;;;4803321;30;20344;-84
2021/08/29 05:26:08;;;;;;;3.38;2.70;;;16.80;90.50;;;;;;4789550;30;20035;-84
2021/08/29 05:28:35;;;;;;;3.55;2.38;;;16.90;90.50;;;;;;4786315;30;20039;-84
2021/08/29 05:31:01;;;;;;;3.78;2.75;;;16.90;90.10;;;;;;4771464;30;20042;-84
2021/08/29 05:33:27;;;;;;;4.35;2.30;;;16.80;90.20;;;;;;4771109;30;20106;-83
2021/08/29 05:35:54;;;;;;;3.80;2.42;;;16.80;90.10;;;;;;4771771;30;20035;-83
2021/08/29 05:38:20;;;;;;;4.35;2.80;;;16.80;90.20;;;;;;4770584;30;20098;-84
2021/08/29 05:40:46;;;;;;;2.88;2.60;;;16.80;90.10;;;;;;4786093;30;20047;-83
2021/08/29 05:43:30;;;;;;;3.78;2.92;;;16.80;90.10;;;;;;4788377;30;20302;-83
2021/08/29 05:45:57;;;;;;;2.90;2.60;;;16.80;90.10;;;;;;4770408;30;20055;-84
2021/08/29 05:48:22;;;;;;;3.08;2.78;;;17.00;89.80;;;;;;4770624;30;20826;-84
2021/08/29 05:50:48;;;;;;;3.20;2.40;;;17.10;89.40;;;;;;4770980;30;20067;-84
2021/08/29 05:53:14;;;;;;;5.65;2.58;;;17.30;88.70;;;;;;4770649;30;20042;-84
2021/08/29 05:55:40;;;;;;;8.40;2.20;;;17.30;88.30;;;;;;4785453;30;20047;-84
2021/08/29 05:58:06;;;;;;;3.83;2.75;;;17.40;88.40;;;;;;4770968;30;20031;-84
2021/08/29 06:00:32;;;;;;;5.68;3.30;;;17.60;87.80;;;;;;4780462;30;20024;-84
2021/08/29 06:03:02;;;;;;;5.85;2.60;;;17.70;86.80;;;;;;4771211;30;20323;-84
2021/08/29 06:05:30;;;;;;;6.65;2.58;;;17.70;86.30;;;;;;4773082;30;20043;-83
2021/08/29 06:08:06;;;;;;;2.88;2.40;;;17.70;86.80;;;;;;4779514;30;20034;-83
2021/08/29 06:10:32;;;;;;;2.50;2.27;;;17.60;86.50;;;;;;4779414;30;20063;-82
2021/08/29 06:12:59;;;;;;;3.20;2.58;;;17.70;86.70;;;;;;4773473;30;20027;-83
2021/08/29 06:15:26;;;;;;;4.45;2.78;;;17.80;87.30;;;;;;4778316;30;20305;-83
2021/08/29 06:17:52;;;;;;;4.70;2.55;;;17.80;86.10;;;;;;4774306;30;20024;-83
2021/08/29 06:20:19;;;;;;;5.07;2.33;;;17.90;85.50;;;;;;4776175;30;20327;-83
2021/08/29 06:22:45;;;;;;;3.30;2.20;;;17.90;85.50;;;;;;4777827;30;20344;-83
2021/08/29 06:25:43;;;;;;;3.33;2.60;;;17.90;85.20;;;;;;4754084;30;20298;-83
2021/08/29 06:28:29;;;;;;;3.67;2.53;;;17.90;84.90;;;;;;4710203;30;20038;-83
2021/08/29 06:31:21;;;;;;;4.18;3.33;;;18.00;84.90;;;;;;4692562;30;20094;-83
2021/08/29 06:34:05;;;;;;;3.28;2.55;;;18.10;84.40;;;;;;4710078;30;20398;-83
2021/08/29 06:36:34;;;;;;;3.10;2.30;;;18.30;84.70;;;;;;4710079;30;20121;-84
2021/08/29 06:39:02;;;;;;;4.95;2.60;;;18.50;83.90;;;;;;4695374;30;20041;-84
2021/08/29 06:41:28;;;;;;;4.13;3.00;;;18.40;83.00;;;;;;4710002;30;20053;-83
2021/08/29 06:43:56;;;;;;;5.80;2.58;;;18.60;83.10;;;;;;4692538;30;20026;-84
2021/08/29 06:46:40;;;;;;;5.50;2.80;;;18.70;82.90;;;;;;4698603;30;20068;-83
2021/08/29 06:49:44;;;;;;;3.10;2.80;;;18.70;81.60;;;;;;4668210;30;20035;-84
2021/08/29 06:52:28;;;;;;;8.27;2.65;;;18.70;81.60;;;;;;4647248;30;20306;-83
2021/08/29 06:55:13;;;;;;;3.72;2.92;;;18.70;81.60;;;;;;4646932;30;20049;-83
2021/08/29 06:57:48;;;;;;;4.97;2.67;;;18.70;81.70;;;;;;4670807;30;20038;-84
2021/08/29 07:00:14;;;;;;;5.95;2.85;;;18.70;81.60;;;;;;4659471;30;20042;-84
2021/08/29 07:02:40;;;;;;;9.40;3.57;;;18.90;82.00;;;;;;4698149;30;20036;-85
2021/08/29 07:05:07;;;;;;;3.22;2.90;;;18.90;80.40;;;;;;4702179;30;20551;-84
2021/08/29 07:07:51;;;;;;;3.20;2.90;;;18.80;81.00;;;;;;4702536;30;20363;-88
2021/08/29 07:10:47;;;;;;;5.18;3.25;;;18.90;81.10;;;;;;4711870;30;20037;-86
2021/08/29 07:13:36;;;;;;;4.65;3.63;;;18.80;81.20;;;;;;4714633;30;20048;-86
2021/08/29 07:16:04;;;;;;;5.00;3.38;;;18.90;80.90;;;;;;4726791;30;20064;-86
2021/08/29 07:18:30;;;;;;;5.82;4.47;;;19.10;80.80;;;;;;4713786;30;20072;-85
2021/08/29 07:21:15;;;;;;;4.35;3.80;;;19.10;79.80;;;;;;4728563;30;20047;-85
2021/08/29 07:23:56;;;;;;;5.38;3.90;;;19.20;80.10;;;;;;4728859;30;20096;-85
2021/08/29 07:26:41;;;;;;;9.25;4.13;;;19.20;79.90;;;;;;4728043;30;20044;-86
2021/08/29 07:29:26;;;;;;;6.10;4.30;;;19.30;79.00;;;;;;4703152;30;20103;-86
2021/08/29 07:32:11;;;;;;;5.25;4.07;;;19.20;79.10;;;;;;4728407;30;20056;-87
2021/08/29 07:34:37;;;;;;;5.38;3.97;;;19.30;79.70;;;;;;4712637;30;20144;-86
2021/08/29 07:37:23;;;;;;;4.53;3.83;;;19.30;79.90;;;;;;4727642;30;20040;-86
2021/08/29 07:39:54;;;;;;;7.32;3.70;;;19.30;79.90;;;;;;4712738;30;20068;-86
2021/08/29 07:42:20;;;;;;;4.40;3.88;;;19.50;79.40;;;;;;4713030;30;20048;-86
2021/08/29 07:44:46;;;;;;;4.65;3.90;;;19.60;79.20;;;;;;4724920;30;20310;-86
2021/08/29 07:47:17;;;;;;;4.82;4.18;;;19.70;79.20;;;;;;4725758;30;20048;-85
2021/08/29 07:49:43;;;;;;;5.30;4.05;;;19.90;77.40;;;;;;4741465;30;20055;-83
2021/08/29 07:52:11;;;;;;;;;;;20.00;76.90;;;;;;4750973;30;20028;-83
2021/08/29 07:54:42;;;;;;;7.22;4.43;;;20.00;76.70;;;;;;4765123;30;19920;-83
2021/08/29 07:57:27;;;;;;;4.97;4.47;;;19.90;77.00;;;;;;4775688;30;20070;-83
2021/08/29 07:59:54;;;;;;;;;;;20.10;77.60;;;;;;4780065;30;20320;-84
2021/08/29 08:02:20;;;;;;;8.10;4.50;;;20.20;77.10;;;;;;4783952;29;19973;-83
2021/08/29 08:05:17;;;;;;;4.18;3.78;;;20.40;76.90;;;;;;4794745;29;20036;-84
2021/08/29 08:08:04;;;;;;;5.80;4.25;;;20.70;75.70;;;;;;4797190;30;20099;-83
2021/08/29 08:11:08;;;;;;;4.93;3.75;;;20.60;75.00;;;;;;4802058;30;20039;-83
2021/08/29 08:13:33;;;;;;;5.43;4.22;;;20.40;75.40;;;;;;4786567;30;20043;-83
2021/08/29 08:16:00;;;;;;;6.05;4.30;;;20.30;75.40;;;;;;4790503;29;20041;-84
2021/08/29 08:18:27;;;;;;;7.13;4.00;;;20.30;75.90;;;;;;4791057;29;20094;-84
2021/08/29 08:20:53;;;;;;;5.30;4.70;;;20.40;77.30;;;;;;4805269;29;20035;-83
2021/08/29 08:23:46;;;;;;;7.13;4.53;;;20.40;76.10;;;;;;4766447;30;20032;-84
2021/08/29 08:26:35;;;;;;;7.40;4.00;;;20.40;75.90;;;;;;4730788;30;20033;-84
2021/08/29 08:29:39;;;;;;;5.00;3.92;;;20.40;76.70;;;;;;4723810;30;20061;-84
2021/08/29 08:32:23;;;;;;;5.95;4.80;;;20.60;75.50;;;;;;4686164;30;20082;-83
2021/08/29 08:35:15;;;;;;;5.50;4.78;;;20.70;75.70;;;;;;4686527;30;20069;-84
2021/08/29 08:37:59;;;;;;;5.75;4.70;;;20.70;74.70;;;;;;4696100;30;20069;-83
2021/08/29 08:40:53;;;;;;;5.60;5.03;;;20.70;75.60;;;;;;4692915;30;20380;-83
2021/08/29 08:43:33;;;;;;;5.03;4.40;;;20.70;75.00;;;;;;4675968;30;20039;-83
2021/08/29 08:46:19;;;;;;;6.70;4.25;;;20.90;76.30;;;;;;4661536;30;20074;-84
2021/08/29 08:49:11;;;;;;;5.18;4.15;;;21.10;74.90;;;;;;4672159;30;20062;-83
2021/08/29 08:52:11;;;;;;;4.82;4.35;;;21.20;74.40;;;;;;4677196;30;20050;-83
2021/08/29 08:55:01;;;;;;;7.15;4.85;;;21.30;74.00;;;;;;4665422;30;20428;-83
2021/08/29 08:57:45;;;;;;;6.53;4.25;;;21.40;74.00;;;;;;4665037;30;20084;-82
2021/08/29 09:00:28;;;;;;;9.75;4.05;;;21.40;73.30;;;;;;4671436;30;20233;-82
2021/08/29 09:03:12;;;;;;;6.03;4.13;;;21.70;75.00;;;;;;4700719;30;20082;-82
2021/08/29 09:05:48;;;;;;;4.75;4.25;;;22.00;70.80;;;;;;4726563;30;20076;-83
2021/08/29 09:08:25;;;;;;;6.30;4.80;;;21.90;71.60;;;;;;4710620;30;20033;-82
2021/08/29 09:10:51;;;;;;;5.38;4.47;;;21.80;71.70;;;;;;4711401;30;20029;-82
2021/08/29 09:13:17;;;;;;;7.55;4.30;;;21.70;71.90;;;;;;4709864;30;20045;-82
2021/08/29 09:15:43;;;;;;;9.00;3.23;;;22.00;73.60;;;;;;4726176;30;20120;-82
2021/08/29 09:18:11;;;;;;;5.78;3.88;;;22.40;73.30;;;;;;4711637;30;20037;-82
2021/08/29 09:20:38;;;;;;;4.30;3.88;;;22.70;69.10;;;;;;4726467;30;20049;-82
2021/08/29 09:23:10;;;;;;;3.90;3.53;;;22.80;68.90;;;;;;4711653;30;20033;-82
2021/08/29 09:25:44;;;;;;;6.20;4.00;;;22.80;69.10;;;;;;4718825;30;20105;-82
2021/08/29 09:28:28;;;;;;;4.63;4.05;;;22.70;67.70;;;;;;4760342;30;20067;-82
2021/08/29 09:31:01;;;;;;;9.48;4.45;;;22.60;69.60;;;;;;4783826;30;20035;-82
2021/08/29 09:33:32;;;;;;;5.55;4.18;;;22.60;67.50;;;;;;4782748;30;20085;-83
2021/08/29 09:35:59;;;;;;;4.32;3.92;;;22.70;68.70;;;;;;4782530;30;20038;-82
2021/08/29 09:38:47;;;;;;;4.30;3.70;;;22.80;67.10;;;;;;4782411;30;20032;-82
2021/08/29 09:41:27;;;;;;;4.78;4.22;;;23.00;69.40;;;;;;4782428;30;20031;-83
2021/08/29 09:44:22;;;;;;;5.57;4.38;;;23.30;67.50;;;;;;4795505;30;20043;-80
2021/08/29 09:47:10;;;;;;;5.50;4.18;;;23.00;67.20;;;;;;4783068;30;20097;-82
2021/08/29 09:49:58;;;;;;;4.35;3.80;;;23.10;67.50;;;;;;4783522;30;20107;-81
2021/08/29 09:52:36;;;;;;;4.35;3.90;;;23.10;66.70;;;;;;4782048;30;20035;-81
2021/08/29 09:55:27;;;;;;;4.32;3.80;;;23.00;65.80;;;;;;4782302;30;20043;-81
2021/08/29 09:58:32;;;;;;;3.80;3.40;;;23.00;66.20;;;;;;4746069;30;20338;-82
2021/08/29 10:01:24;;;;;;;4.15;3.75;;;22.80;66.40;;;;;;4693552;30;20321;-81
2021/08/29 10:04:19;;;;;;;4.82;3.80;;;23.00;67.30;;;;;;4693946;30;20064;-82
2021/08/29 10:06:46;;;;;;;7.13;3.23;;;23.10;65.40;;;;;;4679339;30;20148;-82
2021/08/29 10:09:13;;;;;;;4.35;3.55;;;23.10;65.90;;;;;;4680018;30;20084;-82
2021/08/29 10:11:55;;;;;;;4.22;3.58;;;23.10;66.00;;;;;;4679190;30;20092;-82
2021/08/29 10:14:22;;;;;;;4.70;3.20;;;23.10;65.20;;;;;;4679448;30;20040;-83
2021/08/29 10:17:08;;;;;;;5.15;3.45;;;23.20;66.00;;;;;;4693149;30;20105;-82
2021/08/29 10:19:53;;;;;;;4.28;3.88;;;23.30;64.60;;;;;;4693086;30;20103;-82
2021/08/29 10:22:51;;;;;;;3.47;3.10;;;23.50;64.20;;;;;;4686939;30;20038;-81
2021/08/29 10:25:18;;;;;;;5.70;3.50;;;23.70;64.20;;;;;;4690479;30;20077;-81
2021/08/29 10:28:14;;;;;;;3.95;3.55;;;23.70;64.90;;;;;;4690397;30;20046;-82
2021/08/29 10:30:58;;;;;;;3.92;3.50;;;23.70;64.00;;;;;;4711060;30;20072;-81
2021/08/29 10:33:49;;;;;;;5.32;3.50;;;23.90;63.00;;;;;;4710677;30;20355;-82
2021/08/29 10:36:21;;;;;;;7.45;3.92;;;23.80;64.50;;;;;;4695732;30;20044;-80
2021/08/29 10:39:07;;;;;;;5.32;3.40;;;24.00;62.50;;;;;;4705545;30;20059;-81
2021/08/29 10:41:53;;;;;;;3.42;2.90;;;24.10;62.00;;;;;;4710686;30;20346;-81
2021/08/29 10:44:26;;;;;;;4.50;3.40;;;24.10;62.60;;;;;;4709752;30;20042;-82
2021/08/29 10:47:12;;;;;;;4.20;3.45;;;24.00;61.40;;;;;;4709307;30;20105;-82
2021/08/29 10:50:18;;;;;;;5.75;4.00;;;24.00;61.10;;;;;;4675521;30;20072;-81
2021/08/29 10:52:46;;;;;;;5.22;3.30;;;24.10;62.30;;;;;;4690407;30;20046;-81
2021/08/29 10:55:14;;;;;;;;;;;23.90;60.70;;;;;;4706752;30;20058;-81
2021/08/29 10:57:43;;;;;;;4.28;3.08;;;24.00;62.40;;;;;;4692465;30;20238;-81
2021/08/29 11:00:19;;;;;;;4.03;2.85;;;24.20;62.90;;;;;;4692292;30;20405;-82
2021/08/29 11:02:50;;;;;;;4.00;2.90;;;24.60;60.30;;;;;;4707070;30;20034;-81
2021/08/29 11:05:35;;;;;;;3.80;2.80;;;24.70;59.90;;;;;;4704678;30;20052;-82
2021/08/29 11:08:30;;;;;;;3.67;2.50;;;24.90;58.10;;;;;;4707407;30;20117;-79
2021/08/29 11:10:59;;;;;;;3.45;2.03;;;24.60;59.10;;;;;;4707203;30;20034;-81
2021/08/29 11:13:32;;;;;;;1.63;1.50;;;24.10;58.60;;;;;;4705998;30;20034;-81
2021/08/29 11:16:12;;;;;;;4.45;1.20;;;23.50;57.30;;;;;;4713737;30;20083;-82
2021/08/29 11:19:02;;;;;;;4.60;1.20;;;23.00;56.60;;;;;;4756726;30;20039;-81
2021/08/29 11:21:43;;;;;;;;;;;22.30;57.00;;;;;;4788778;30;20347;-81
2021/08/29 11:24:55;;;;;;;5.35;1.48;;;21.90;59.70;;;;;;4780482;30;19982;-82
2021/08/29 11:30:34;;;;;;;1.00;0.90;;;21.10;61.80;;;;;;4781636;30;20028;-83
2021/08/29 11:33:11;;;;;;;1.75;1.08;;;20.80;63.80;;;;;;4765731;30;20024;-82
2021/08/29 11:35:48;;;;;;;1.67;1.13;;;20.70;63.60;;;;;;4764700;30;20088;-82
2021/08/29 11:38:35;;;;;;;1.60;1.25;;;20.50;64.30;;;;;;4780234;30;20269;-82
2021/08/29 11:41:12;;;;;;;1.73;1.13;;;20.60;64.50;;;;;;4765479;30;20024;-82
2021/08/29 11:43:52;;;;;;;1.70;1.40;;;20.60;65.50;;;;;;4765828;30;20054;-82
2021/08/29 11:46:27;;;;;;;2.15;1.83;;;20.60;66.50;;;;;;4779836;30;20290;-82
2021/08/29 11:49:14;;;;;;;2.08;1.38;;;20.70;68.00;;;;;;4767637;30;20043;-82
2021/08/29 11:51:49;;;;;;;2.13;1.73;;;20.80;69.60;;;;;;4766602;30;20034;-82
2021/08/29 11:54:20;;;;;;;2.00;1.38;;;20.90;68.40;;;;;;4766211;30;20047;-80
2021/08/29 11:56:50;;;;;;;1.30;1.13;;;21.00;68.30;;;;;;4765976;30;20035;-81
2021/08/29 11:59:27;;;;;;;1.63;1.40;;;21.00;68.70;;;;;;4779962;29;20081;-80
2021/08/29 12:01:58;;;;;;;4.85;2.25;;;21.20;68.30;;;;;;4765339;30;20055;-81
2021/08/29 12:04:26;;;;;;;3.38;2.20;;;21.20;68.00;;;;;;4765672;30;20032;-80
2021/08/29 12:07:11;;;;;;;2.13;1.92;;;21.40;69.20;;;;;;4781349;30;20026;-81
2021/08/29 12:10:17;;;;;;;6.82;2.35;;;21.40;68.50;;;;;;4780756;30;20036;-81
2021/08/29 12:13:06;;;;;;;2.15;1.85;;;21.40;68.80;;;;;;4762171;30;20241;-81
2021/08/29 12:15:55;;;;;;;2.92;2.03;;;21.30;69.40;;;;;;4761445;30;20035;-81
2021/08/29 12:18:57;;;;;;;;;;;21.40;68.60;;;;;;4726422;30;20355;-81
2021/08/29 12:21:43;;;;;;;2.00;1.40;;;21.60;67.50;;;;;;4725035;30;19921;-82
2021/08/29 12:24:47;;;;;;;1.80;1.45;;;21.70;67.00;;;;;;4674556;30;20050;-81
2021/08/29 12:27:15;;;;;;;1.73;1.15;;;21.60;67.50;;;;;;4674468;30;20061;-81
2021/08/29 12:29:52;;;;;;;1.90;1.48;;;21.50;68.20;;;;;;4646048;30;20045;-81
2021/08/29 12:32:29;;;;;;;1.75;1.60;;;21.60;68.50;;;;;;4660113;30;20043;-81
2021/08/29 12:35:02;;;;;;;4.32;2.00;;;21.60;68.00;;;;;;4660114;30;20050;-81
2021/08/29 12:37:31;;;;;;;2.65;1.80;;;21.50;66.80;;;;;;4646152;30;20034;-80
2021/08/29 12:40:07;;;;;;;1.83;1.55;;;21.50;68.00;;;;;;4645297;30;20045;-81
2021/08/29 12:42:37;;;;;;;1.73;1.47;;;21.50;68.00;;;;;;4673958;30;20038;-81
2021/08/29 12:45:16;;;;;;;2.13;1.50;;;21.50;65.60;;;;;;4674731;30;20054;-81
2021/08/29 12:47:44;;;;;;;2.25;1.30;;;21.40;64.70;;;;;;4661532;30;20349;-81
2021/08/29 12:50:15;;;;;;;1.80;1.30;;;21.20;65.20;;;;;;4662489;30;20311;-81
2021/08/29 12:52:42;;;;;;;3.70;1.20;;;21.20;65.40;;;;;;4698097;30;20040;-81
2021/08/29 12:55:29;;;;;;;2.58;1.30;;;21.00;66.20;;;;;;4728921;30;20076;-82
2021/08/29 12:57:56;;;;;;;1.77;1.40;;;21.10;66.70;;;;;;4738458;30;20040;-81
2021/08/29 13:00:22;;;;;;;;;;;21.20;67.00;;;;;;4797684;30;20070;-81
2021/08/29 13:02:47;;;;;;;2.33;1.53;;;21.30;66.80;;;;;;4782374;30;19914;-81
2021/08/29 13:05:13;;;;;;;1.42;1.33;;;21.10;68.00;;;;;;4783363;30;20055;-82
2021/08/29 13:07:50;;;;;;;1.48;1.38;;;21.10;67.90;;;;;;4782311;30;20032;-81
2021/08/29 13:10:18;;;;;;;2.08;1.83;;;21.00;68.90;;;;;;4782373;30;20078;-81
2021/08/29 13:12:43;;;;;;;2.38;1.45;;;21.10;68.50;;;;;;4782503;30;20050;-81
2021/08/29 13:15:20;;;;;;;2.30;1.65;;;21.20;69.40;;;;;;4781952;30;20251;-82
2021/08/29 13:17:49;;;;;;;1.70;1.17;;;21.40;68.30;;;;;;4781698;30;20034;-82
2021/08/29 13:20:15;;;;;;;4.95;1.85;;;21.50;67.20;;;;;;4796655;30;20024;-82
2021/08/29 13:22:43;;;;;;;2.45;1.80;;;21.50;67.90;;;;;;4781771;30;20093;-82
2021/08/29 13:25:48;;;;;;;3.67;2.13;;;21.60;67.50;;;;;;4781673;30;20075;-82
2021/08/29 13:28:13;;;;;;;2.35;2.00;;;21.70;67.00;;;;;;4745636;30;20044;-82
2021/08/29 13:30:39;;;;;;;2.90;2.15;;;21.70;68.70;;;;;;4748640;30;20088;-82
2021/08/29 13:33:25;;;;;;;3.40;2.25;;;21.70;67.80;;;;;;4733166;30;20053;-82
2021/08/29 13:36:00;;;;;;;3.78;2.83;;;21.80;68.20;;;;;;4730648;30;20120;-82
2021/08/29 13:38:30;;;;;;;2.40;2.20;;;21.70;67.90;;;;;;4727708;30;20259;-82
2021/08/29 13:40:56;;;;;;;2.78;2.55;;;21.60;68.90;;;;;;4737661;30;20160;-81
2021/08/29 13:43:30;;;;;;;2.10;1.90;;;21.70;69.00;;;;;;4731230;30;20112;-81
2021/08/29 13:46:01;;;;;;;3.45;2.40;;;21.60;69.20;;;;;;4748627;30;20049;-81
2021/08/29 13:48:27;;;;;;;2.33;2.13;;;21.70;70.10;;;;;;4759949;30;20334;-81
2021/08/29 13:50:53;;;;;;;2.80;2.55;;;22.00;70.50;;;;;;4758864;30;20051;-83
2021/08/29 13:53:25;;;;;;;4.40;3.17;;;22.10;70.20;;;;;;4747251;30;20066;-83
2021/08/29 13:55:51;;;;;;;3.03;2.65;;;22.10;70.90;;;;;;4752777;30;20032;-82
2021/08/29 13:58:16;;;;;;;3.13;2.75;;;22.10;71.10;;;;;;4740505;30;20059;-81
2021/08/29 14:00:42;;;;;;;3.80;2.95;;;22.00;72.10;;;;;;4747493;30;20099;-81
2021/08/29 14:03:08;;;;;;;3.63;3.20;;;21.70;72.90;;;;;;4744076;30;20093;-83
2021/08/29 14:05:34;;;;;;;5.32;2.60;;;21.70;73.70;;;;;;4793715;30;20052;-82
2021/08/29 14:08:01;;;;;;;5.03;3.25;;;21.60;71.90;;;;;;4773846;30;20040;-82
2021/08/29 14:10:28;;;;;;;4.88;3.22;;;21.40;71.80;;;;;;4792333;30;20535;-82
2021/08/29 14:12:54;;;;;;;5.00;2.40;;;21.30;72.20;;;;;;4774738;30;20115;-82
2021/08/29 14:15:22;;;;;;;2.70;2.47;;;21.20;71.80;;;;;;4782187;30;20047;-85
2021/08/29 14:17:48;;;;;;;4.22;2.83;;;21.20;70.90;;;;;;4782647;30;20028;-83
2021/08/29 14:20:15;;;;;;;2.92;2.63;;;21.10;71.60;;;;;;4796355;30;20028;-83
2021/08/29 14:22:42;;;;;;;3.95;2.78;;;21.00;72.20;;;;;;4797848;30;20153;-84
2021/08/29 14:25:08;;;;;;;;;;;21.00;72.30;;;;;;4781725;30;20023;-82
2021/08/29 14:27:34;;;;;;;3.05;2.47;;;21.20;73.40;;;;;;4789609;30;19910;-81
2021/08/29 14:30:00;;;;;;;2.83;2.30;;;21.50;73.00;;;;;;4793910;30;20085;-82
2021/08/29 14:32:26;;;;;;;2.85;2.35;;;21.70;71.40;;;;;;4798808;30;20035;-81
2021/08/29 14:34:57;;;;;;;3.47;2.70;;;21.80;70.70;;;;;;4797938;30;20042;-82
2021/08/29 14:37:23;;;;;;;3.00;2.40;;;21.90;69.40;;;;;;4783494;30;20118;-82
2021/08/29 14:39:49;;;;;;;2.25;2.05;;;21.90;68.60;;;;;;4784119;30;20341;-83
2021/08/29 14:42:15;;;;;;;2.22;2.03;;;21.90;68.10;;;;;;4799660;29;20027;-82
2021/08/29 14:44:41;;;;;;;2.80;2.33;;;21.90;69.10;;;;;;4799184;29;20035;-83
2021/08/29 14:47:06;;;;;;;2.17;1.98;;;22.10;68.40;;;;;;4778679;30;20071;-84
2021/08/29 14:49:32;;;;;;;2.60;2.40;;;22.20;68.00;;;;;;4762831;30;20038;-82
2021/08/29 14:51:58;;;;;;;2.40;2.20;;;22.20;67.00;;;;;;4778167;30;20070;-83
2021/08/29 14:54:24;;;;;;;2.33;2.10;;;22.10;67.70;;;;;;4781204;30;20023;-82
2021/08/29 14:56:50;;;;;;;4.18;1.88;;;21.90;68.10;;;;;;4795747;29;20043;-82
2021/08/29 14:59:15;;;;;;;2.33;1.80;;;22.00;66.90;;;;;;4778348;30;20068;-83
2021/08/29 15:01:41;;;;;;;4.88;1.83;;;22.10;66.80;;;;;;4777279;30;20035;-82
2021/08/29 15:04:07;;;;;;;3.37;1.93;;;22.20;66.20;;;;;;4771057;30;20028;-83
2021/08/29 15:06:33;;;;;;;1.98;1.77;;;22.20;64.60;;;;;;4778055;30;20036;-86
2021/08/29 15:08:59;;;;;;;2.92;2.20;;;22.30;65.50;;;;;;4781424;30;20035;-81
2021/08/29 15:11:25;;;;;;;4.80;2.70;;;22.40;64.80;;;;;;4795330;30;20039;-82
2021/08/29 15:13:51;;;;;;;2.23;2.03;;;22.50;66.00;;;;;;4780608;29;20327;-80
2021/08/29 15:16:17;;;;;;;2.60;2.30;;;22.60;65.60;;;;;;4777733;29;20046;-79
2021/08/29 15:18:42;;;;;;;2.55;1.90;;;22.40;65.60;;;;;;4761861;30;20039;-79
2021/08/29 15:21:08;;;;;;;2.42;2.10;;;22.20;65.10;;;;;;4777269;30;20023;-79
2021/08/29 15:23:34;;;;;;;2.10;1.90;;;22.10;65.30;;;;;;4797842;29;20330;-82
2021/08/29 15:26:03;;;;;;;3.95;1.85;;;22.10;65.90;;;;;;4797606;30;20222;-79
2021/08/29 15:28:30;;;;;;;2.13;1.88;;;21.90;66.10;;;;;;4776708;30;20035;-80
2021/08/29 15:30:58;;;;;;;1.77;1.57;;;21.90;67.00;;;;;;4780359;30;20042;-80
2021/08/29 15:33:26;;;;;;;2.03;1.67;;;21.90;65.80;;;;;;4779139;29;20110;-80
2021/08/29 15:35:53;;;;;;;1.83;1.60;;;21.70;64.50;;;;;;4798600;29;20288;-80
2021/08/29 15:38:20;;;;;;;2.65;1.42;;;21.60;64.10;;;;;;4780069;30;20065;-79
2021/08/29 15:40:47;;;;;;;1.83;1.40;;;21.50;64.60;;;;;;4779123;30;20319;-79
2021/08/29 15:43:13;;;;;;;1.70;1.60;;;21.50;64.70;;;;;;4777194;30;20104;-76
2021/08/29 15:45:41;;;;;;;4.40;1.45;;;21.40;64.70;;;;;;4778243;30;20339;-79
2021/08/29 15:48:08;;;;;;;2.00;1.55;;;21.30;65.60;;;;;;4794225;29;20085;-78
2021/08/29 15:50:37;;;;;;;2.58;1.58;;;21.30;65.80;;;;;;4792697;30;20064;-78
2021/08/29 15:53:05;;;;;;;;;;;21.10;66.70;;;;;;4801567;29;20066;-80
2021/08/29 15:55:31;;;;;;;2.92;1.95;;;21.00;67.90;;;;;;4761786;30;20206;-79
2021/08/29 15:57:58;;;;;;;2.80;1.73;;;20.90;68.70;;;;;;4802526;29;20096;-79
2021/08/29 16:00:24;;;;;;;2.10;1.43;;;20.80;69.10;;;;;;4794449;30;20237;-80
2021/08/29 16:02:52;;;;;;;4.80;1.50;;;20.90;68.90;;;;;;4796637;29;20357;-79
2021/08/29 16:05:19;;;;;;;1.80;1.52;;;20.80;69.00;;;;;;4801159;29;20031;-79
2021/08/29 16:07:46;;;;;;;1.40;1.25;;;20.70;69.20;;;;;;4782075;30;20042;-79
2021/08/29 16:10:11;;;;;;;1.40;1.20;;;20.60;69.40;;;;;;4765633;30;20035;-79